Aviation Digital Data Service (ADDS)

Output produced by METARs form (1117 UTC 17 June 2019)
found at http://www.aviationweather.gov/metar/data/
 
METAR text: VNKT 171050Z 22012KT 6000 VCRA FEW015 FEW025CB SCT030 BKN100 28/19 Q1006 NOSIG CB TO NW N AND NE
Conditions at: VNKT (KATHMANDU INTL A, NP) observed 1050 UTC 17 June 2019
Temperature: 28.0°C (82°F)
Dewpoint: 19.0°C (66°F) [RH = 58%]
Pressure (altimeter): 29.70 inches Hg (1006.0 mb)
Winds: from the SW (220 degrees) at 14 MPH (12 knots; 6.2 m/s)
Visibility: 4 miles ( 6 km)
Ceiling: 10000 feet AGL
Clouds: few clouds at 1500 feet AGL
few clouds at 2500 feet AGL
scattered clouds at 3000 feet AGL
broken clouds at 10000 feet AGL
Weather: VCRA  (unknown weather)

METAR text: VNKT 171020Z 22014KT 190V250 6000 VCRA FEW015 FEW025CB SCT030 BKN100 27/19 Q1005 NOSIG CB TO W N NE AND OVERHEAD
Conditions at: VNKT (KATHMANDU INTL A, NP) observed 1020 UTC 17 June 2019
Temperature: 27.0°C (81°F)
Dewpoint: 19.0°C (66°F) [RH = 62%]
Pressure (altimeter): 29.68 inches Hg (1005.0 mb)
Winds: from the SW (220 degrees) at 16 MPH (14 knots; 7.2 m/s)
Visibility: 4 miles ( 6 km)
Ceiling: 10000 feet AGL
Clouds: few clouds at 1500 feet AGL
few clouds at 2500 feet AGL
scattered clouds at 3000 feet AGL
broken clouds at 10000 feet AGL
Weather: VCRA  (unknown weather)

METAR text: VNKT 170950Z 23012KT DZ 7000 FEW020 FEW025CB SCT030 BKN100 28/20 Q1006 NOSIG CB TO W NW N NE E AND OHD
Conditions at: VNKT (KATHMANDU INTL A, NP) observed 0950 UTC 17 June 2019
Temperature: 28.0°C (82°F)
Dewpoint: 20.0°C (68°F) [RH = 62%]
Pressure (altimeter): 29.70 inches Hg (1006.0 mb)
Winds: from the SW (230 degrees) at 14 MPH (12 knots; 6.2 m/s)
Visibility: 4 miles ( 7 km)
Ceiling: 10000 feet AGL
Clouds: few clouds at 2000 feet AGL
few clouds at 2500 feet AGL
scattered clouds at 3000 feet AGL
broken clouds at 10000 feet AGL
Weather: DZ  (moderate drizzle)

METAR text: VNKT 170920Z 22015KT DZ 7000 FEW020 FEW025CB SCT030 BKN100 27/20 Q1006 NOSIG CB TO W NW N NE E AND OHD
Conditions at: VNKT (KATHMANDU INTL A, NP) observed 0920 UTC 17 June 2019
Temperature: 27.0°C (81°F)
Dewpoint: 20.0°C (68°F) [RH = 66%]
Pressure (altimeter): 29.70 inches Hg (1006.0 mb)
Winds: from the SW (220 degrees) at 17 MPH (15 knots; 7.7 m/s)
Visibility: 4 miles ( 7 km)
Ceiling: 10000 feet AGL
Clouds: few clouds at 2000 feet AGL
few clouds at 2500 feet AGL
scattered clouds at 3000 feet AGL
broken clouds at 10000 feet AGL
Weather: DZ  (moderate drizzle)

METAR text: VNKT 170850Z 23010KT 7000 FEW020 FEW025CB SCT030 BKN100 27/20 Q1006 NOSIG CB TO N
Conditions at: VNKT (KATHMANDU INTL A, NP) observed 0850 UTC 17 June 2019
Temperature: 27.0°C (81°F)
Dewpoint: 20.0°C (68°F) [RH = 66%]
Pressure (altimeter): 29.70 inches Hg (1006.0 mb)
Winds: from the SW (230 degrees) at 12 MPH (10 knots; 5.1 m/s)
Visibility: 4 miles ( 7 km)
Ceiling: 10000 feet AGL
Clouds: few clouds at 2000 feet AGL
few clouds at 2500 feet AGL
scattered clouds at 3000 feet AGL
broken clouds at 10000 feet AGL
Weather: no significant weather observed at this time

METAR text: VNKT 170820Z 23009KT 7000 DZ FEW020 FEW025CB SCT030 BKN100 28/20 Q1006 NOSIG CB TO N NE AND OVERHEAD
Conditions at: VNKT (KATHMANDU INTL A, NP) observed 0820 UTC 17 June 2019
Temperature: 28.0°C (82°F)
Dewpoint: 20.0°C (68°F) [RH = 62%]
Pressure (altimeter): 29.70 inches Hg (1006.0 mb)
Winds: from the SW (230 degrees) at 10 MPH (9 knots; 4.6 m/s)
Visibility: 4 miles ( 7 km)
Ceiling: 10000 feet AGL
Clouds: few clouds at 2000 feet AGL
few clouds at 2500 feet AGL
scattered clouds at 3000 feet AGL
broken clouds at 10000 feet AGL
Weather: DZ  (moderate drizzle)

METAR text: VNKT 170750Z 23008KT 7000 FEW020 FEW025CB SCT030 BKN100 28/20 Q1006 NOSIG CB TO E SE AND OVERHEAD
Conditions at: VNKT (KATHMANDU INTL A, NP) observed 0750 UTC 17 June 2019
Temperature: 28.0°C (82°F)
Dewpoint: 20.0°C (68°F) [RH = 62%]
Pressure (altimeter): 29.70 inches Hg (1006.0 mb)
Winds: from the SW (230 degrees) at 9 MPH (8 knots; 4.1 m/s)
Visibility: 4 miles ( 7 km)
Ceiling: 10000 feet AGL
Clouds: few clouds at 2000 feet AGL
few clouds at 2500 feet AGL
scattered clouds at 3000 feet AGL
broken clouds at 10000 feet AGL
Weather: no significant weather observed at this time

METAR text: VNKT 170720Z 26007KT 230V290 7000 DZ FEW020 FEW025CB SCT030 BKN100 29/21 Q1007 NOSIG CB TO E SE AND OVERHEAD
Conditions at: VNKT (KATHMANDU INTL A, NP) observed 0720 UTC 17 June 2019
Temperature: 29.0°C (84°F)
Dewpoint: 21.0°C (70°F) [RH = 62%]
Pressure (altimeter): 29.73 inches Hg (1007.0 mb)
Winds: from the W (260 degrees) at 8 MPH (7 knots; 3.6 m/s)
Visibility: 4 miles ( 7 km)
Ceiling: 10000 feet AGL
Clouds: few clouds at 2000 feet AGL
few clouds at 2500 feet AGL
scattered clouds at 3000 feet AGL
broken clouds at 10000 feet AGL
Weather: DZ  (moderate drizzle)

METAR text: VNKT 170650Z 29009KT 7000 FEW020 FEW025TCU SCT030 BKN100 29/20 Q1007 NOSIG
Conditions at: VNKT (KATHMANDU INTL A, NP) observed 0650 UTC 17 June 2019
Temperature: 29.0°C (84°F)
Dewpoint: 20.0°C (68°F) [RH = 58%]
Pressure (altimeter): 29.73 inches Hg (1007.0 mb)
Winds: from the WNW (290 degrees) at 10 MPH (9 knots; 4.6 m/s)
Visibility: 4 miles ( 7 km)
Ceiling: 10000 feet AGL
Clouds: few clouds at 2000 feet AGL
few clouds at 2500 feet AGL
scattered clouds at 3000 feet AGL
broken clouds at 10000 feet AGL
Weather: no significant weather observed at this time

METAR text: VNKT 170620Z 30006KT 7000 FEW020 FEW025TCU SCT030 30/19 Q1007 NOSIG
Conditions at: VNKT (KATHMANDU INTL A, NP) observed 0620 UTC 17 June 2019
Temperature: 30.0°C (86°F)
Dewpoint: 19.0°C (66°F) [RH = 52%]
Pressure (altimeter): 29.73 inches Hg (1007.0 mb)
Winds: from the WNW (300 degrees) at 7 MPH (6 knots; 3.1 m/s)
Visibility: 4 miles ( 7 km)
Ceiling: at least 12,000 feet AGL
Clouds: few clouds at 2000 feet AGL
few clouds at 2500 feet AGL
scattered clouds at 3000 feet AGL
Weather: no significant weather observed at this time

METAR text: VNKT 170550Z 29006KT 7000 FEW020 SCT030 BKN100 30/19 Q1007 NOSIG
Conditions at: VNKT (KATHMANDU INTL A, NP) observed 0550 UTC 17 June 2019
Temperature: 30.0°C (86°F)
Dewpoint: 19.0°C (66°F) [RH = 52%]
Pressure (altimeter): 29.73 inches Hg (1007.0 mb)
Winds: from the WNW (290 degrees) at 7 MPH (6 knots; 3.1 m/s)
Visibility: 4 miles ( 7 km)
Ceiling: 10000 feet AGL
Clouds: few clouds at 2000 feet AGL
scattered clouds at 3000 feet AGL
broken clouds at 10000 feet AGL
Weather: no significant weather observed at this time

METAR text: VNKT 170520Z 09004KT 7000 FEW020 31/19 Q1007 NOSIG
Conditions at: VNKT (KATHMANDU INTL A, NP) observed 0520 UTC 17 June 2019
Temperature: 31.0°C (88°F)
Dewpoint: 19.0°C (66°F) [RH = 49%]
Pressure (altimeter): 29.73 inches Hg (1007.0 mb)
Winds: from the E (90 degrees) at 5 MPH (4 knots; 2.1 m/s)
Visibility: 4 miles ( 7 km)
Ceiling: at least 12,000 feet AGL
Clouds: few clouds at 2000 feet AGL
Weather: no significant weather observed at this time

METAR text: VNKT 170450Z 04004KT 7000 FEW020 30/18 Q1007 NOSIG
Conditions at: VNKT (KATHMANDU INTL A, NP) observed 0450 UTC 17 June 2019
Temperature: 30.0°C (86°F)
Dewpoint: 18.0°C (64°F) [RH = 49%]
Pressure (altimeter): 29.73 inches Hg (1007.0 mb)
Winds: from the NE (40 degrees) at 5 MPH (4 knots; 2.1 m/s)
Visibility: 4 miles ( 7 km)
Ceiling: at least 12,000 feet AGL
Clouds: few clouds at 2000 feet AGL
Weather: no significant weather observed at this time

METAR text: VNKT 170420Z 30003KT 7000 FEW020 29/18 Q1008 NOSIG
Conditions at: VNKT (KATHMANDU INTL A, NP) observed 0420 UTC 17 June 2019
Temperature: 29.0°C (84°F)
Dewpoint: 18.0°C (64°F) [RH = 52%]
Pressure (altimeter): 29.76 inches Hg (1008.0 mb)
Winds: from the WNW (300 degrees) at 3 MPH (3 knots; 1.5 m/s)
Visibility: 4 miles ( 7 km)
Ceiling: at least 12,000 feet AGL
Clouds: few clouds at 2000 feet AGL
Weather: no significant weather observed at this time

METAR text: VNKT 170350Z VRB02KT 7000 FEW020 28/19 Q1008 NOSIG
Conditions at: VNKT (KATHMANDU INTL A, NP) observed 0350 UTC 17 June 2019
Temperature: 28.0°C (82°F)
Dewpoint: 19.0°C (66°F) [RH = 58%]
Pressure (altimeter): 29.76 inches Hg (1008.0 mb)
Winds: variable direction winds at 2 MPH (2 knots; 1.0 m/s)
Visibility: 4 miles ( 7 km)
Ceiling: at least 12,000 feet AGL
Clouds: few clouds at 2000 feet AGL
Weather: no significant weather observed at this time

METAR text: VNKT 170320Z VRB02KT 6000 FEW015 27/20 Q1008 NOSIG
Conditions at: VNKT (KATHMANDU INTL A, NP) observed 0320 UTC 17 June 2019
Temperature: 27.0°C (81°F)
Dewpoint: 20.0°C (68°F) [RH = 66%]
Pressure (altimeter): 29.76 inches Hg (1008.0 mb)
Winds: variable direction winds at 2 MPH (2 knots; 1.0 m/s)
Visibility: 4 miles ( 6 km)
Ceiling: at least 12,000 feet AGL
Clouds: few clouds at 1500 feet AGL
Weather: no significant weather observed at this time

METAR text: VNKT 170250Z 12003KT 6000 FEW015 26/21 Q1008 NOSIG
Conditions at: VNKT (KATHMANDU INTL A, NP) observed 0250 UTC 17 June 2019
Temperature: 26.0°C (79°F)
Dewpoint: 21.0°C (70°F) [RH = 74%]
Pressure (altimeter): 29.76 inches Hg (1008.0 mb)
Winds: from the ESE (120 degrees) at 3 MPH (3 knots; 1.5 m/s)
Visibility: 4 miles ( 6 km)
Ceiling: at least 12,000 feet AGL
Clouds: few clouds at 1500 feet AGL
Weather: no significant weather observed at this time

METAR text: VNKT 170220Z VRB02KT 5000 BR FEW015 25/21 Q1008 NOSIG
Conditions at: VNKT (KATHMANDU INTL A, NP) observed 0220 UTC 17 June 2019
Temperature: 25.0°C (77°F)
Dewpoint: 21.0°C (70°F) [RH = 79%]
Pressure (altimeter): 29.76 inches Hg (1008.0 mb)
Winds: variable direction winds at 2 MPH (2 knots; 1.0 m/s)
Visibility: 3 miles ( 5 km)
Ceiling: at least 12,000 feet AGL
Clouds: few clouds at 1500 feet AGL
Weather: BR  (mist)

METAR text: VNKT 170150Z VRB02KT 6000 FEW015 25/21 Q1008 NOSIG
Conditions at: VNKT (KATHMANDU INTL A, NP) observed 0150 UTC 17 June 2019
Temperature: 25.0°C (77°F)
Dewpoint: 21.0°C (70°F) [RH = 79%]
Pressure (altimeter): 29.76 inches Hg (1008.0 mb)
Winds: variable direction winds at 2 MPH (2 knots; 1.0 m/s)
Visibility: 4 miles ( 6 km)
Ceiling: at least 12,000 feet AGL
Clouds: few clouds at 1500 feet AGL
Weather: no significant weather observed at this time

METAR text: VNKT 170120Z 00000KT 6000 FEW015 24/21 Q1008 NOSIG
Conditions at: VNKT (KATHMANDU INTL A, NP) observed 0120 UTC 17 June 2019
Temperature: 24.0°C (75°F)
Dewpoint: 21.0°C (70°F) [RH = 83%]
Pressure (altimeter): 29.76 inches Hg (1008.0 mb)
Winds: calm
Visibility: 4 miles ( 6 km)
Ceiling: at least 12,000 feet AGL
Clouds: few clouds at 1500 feet AGL
Weather: no significant weather observed at this time

METAR text: VNKT 170050Z 00000KT 5000 BR FEW015 23/21 Q1007 NOSIG
Conditions at: VNKT (KATHMANDU INTL A, NP) observed 0050 UTC 17 June 2019
Temperature: 23.0°C (73°F)
Dewpoint: 21.0°C (70°F) [RH = 89%]
Pressure (altimeter): 29.73 inches Hg (1007.0 mb)
Winds: calm
Visibility: 3 miles ( 5 km)
Ceiling: at least 12,000 feet AGL
Clouds: few clouds at 1500 feet AGL
Weather: BR  (mist)

METAR text: VNKT 170020Z 13003KT 5000 BR FEW015 22/20 Q1007 NOSIG
Conditions at: VNKT (KATHMANDU INTL A, NP) observed 0020 UTC 17 June 2019
Temperature: 22.0°C (72°F)
Dewpoint: 20.0°C (68°F) [RH = 88%]
Pressure (altimeter): 29.73 inches Hg (1007.0 mb)
Winds: from the SE (130 degrees) at 3 MPH (3 knots; 1.5 m/s)
Visibility: 3 miles ( 5 km)
Ceiling: at least 12,000 feet AGL
Clouds: few clouds at 1500 feet AGL
Weather: BR  (mist)

METAR text: VNKT 162320Z 07004KT 5000 BR FEW015 22/20 Q1006 NOSIG
Conditions at: VNKT (KATHMANDU INTL A, NP) observed 2320 UTC 16 June 2019
Temperature: 22.0°C (72°F)
Dewpoint: 20.0°C (68°F) [RH = 88%]
Pressure (altimeter): 29.70 inches Hg (1006.0 mb)
Winds: from the ENE (70 degrees) at 5 MPH (4 knots; 2.1 m/s)
Visibility: 3 miles ( 5 km)
Ceiling: at least 12,000 feet AGL
Clouds: few clouds at 1500 feet AGL
Weather: BR  (mist)

METAR text: VNKT 162220Z 15004KT 6000 FEW015 22/20 Q1006 NOSIG
Conditions at: VNKT (KATHMANDU INTL A, NP) observed 2220 UTC 16 June 2019
Temperature: 22.0°C (72°F)
Dewpoint: 20.0°C (68°F) [RH = 88%]
Pressure (altimeter): 29.70 inches Hg (1006.0 mb)
Winds: from the SSE (150 degrees) at 5 MPH (4 knots; 2.1 m/s)
Visibility: 4 miles ( 6 km)
Ceiling: at least 12,000 feet AGL
Clouds: few clouds at 1500 feet AGL
Weather: no significant weather observed at this time

METAR text: VNKT 162120Z VRB02KT 6000 FEW015 23/20 Q1006 NOSIG
Conditions at: VNKT (KATHMANDU INTL A, NP) observed 2120 UTC 16 June 2019
Temperature: 23.0°C (73°F)
Dewpoint: 20.0°C (68°F) [RH = 83%]
Pressure (altimeter): 29.70 inches Hg (1006.0 mb)
Winds: variable direction winds at 2 MPH (2 knots; 1.0 m/s)
Visibility: 4 miles ( 6 km)
Ceiling: at least 12,000 feet AGL
Clouds: few clouds at 1500 feet AGL
Weather: no significant weather observed at this time

METAR text: VNKT 162020Z VRB02KT 6000 TS FEW015 FEW025CB 23/20 Q1006 NOSIG CB TO SW
Conditions at: VNKT (KATHMANDU INTL A, NP) observed 2020 UTC 16 June 2019
Temperature: 23.0°C (73°F)
Dewpoint: 20.0°C (68°F) [RH = 83%]
Pressure (altimeter): 29.70 inches Hg (1006.0 mb)
Winds: variable direction winds at 2 MPH (2 knots; 1.0 m/s)
Visibility: 4 miles ( 6 km)
Ceiling: at least 12,000 feet AGL
Clouds: few clouds at 1500 feet AGL
few clouds at 2500 feet AGL
Weather: TS  (thunderstorm)

METAR text: VNKT 161920Z 33004KT 6000 FEW015 SCT030 23/19 Q1008 NOSIG
Conditions at: VNKT (KATHMANDU INTL A, NP) observed 1920 UTC 16 June 2019
Temperature: 23.0°C (73°F)
Dewpoint: 19.0°C (66°F) [RH = 78%]
Pressure (altimeter): 29.76 inches Hg (1008.0 mb)
Winds: from the NNW (330 degrees) at 5 MPH (4 knots; 2.1 m/s)
Visibility: 4 miles ( 6 km)
Ceiling: at least 12,000 feet AGL
Clouds: few clouds at 1500 feet AGL
scattered clouds at 3000 feet AGL
Weather: no significant weather observed at this time

METAR text: VNKT 161820Z 31003KT 6000 -RA FEW015 FEW025CB SCT030 BKN100 25/20 Q1009 NOSIG CB TO NE
Conditions at: VNKT (KATHMANDU INTL A, NP) observed 1820 UTC 16 June 2019
Temperature: 25.0°C (77°F)
Dewpoint: 20.0°C (68°F) [RH = 74%]
Pressure (altimeter): 29.79 inches Hg (1009.0 mb)
Winds: from the NW (310 degrees) at 3 MPH (3 knots; 1.5 m/s)
Visibility: 4 miles ( 6 km)
Ceiling: 10000 feet AGL
Clouds: few clouds at 1500 feet AGL
few clouds at 2500 feet AGL
scattered clouds at 3000 feet AGL
broken clouds at 10000 feet AGL
Weather: -RA  (light rain)

METAR text: VNKT 161620Z 27005KT 220V320 6000 FEW015 SCT030 BKN100 26/21 Q1009 NOSIG
Conditions at: VNKT (KATHMANDU INTL A, NP) observed 1620 UTC 16 June 2019
Temperature: 26.0°C (79°F)
Dewpoint: 21.0°C (70°F) [RH = 74%]
Pressure (altimeter): 29.79 inches Hg (1009.0 mb)
Winds: from the W (270 degrees) at 6 MPH (5 knots; 2.6 m/s)
Visibility: 4 miles ( 6 km)
Ceiling: 10000 feet AGL
Clouds: few clouds at 1500 feet AGL
scattered clouds at 3000 feet AGL
broken clouds at 10000 feet AGL
Weather: no significant weather observed at this time

METAR text: VNKT 161550Z 26005KT 220V300 6000 FEW015 SCT030 BKN100 26/21 Q1009 NOSIG
Conditions at: VNKT (KATHMANDU INTL A, NP) observed 1550 UTC 16 June 2019
Temperature: 26.0°C (79°F)
Dewpoint: 21.0°C (70°F) [RH = 74%]
Pressure (altimeter): 29.79 inches Hg (1009.0 mb)
Winds: from the W (260 degrees) at 6 MPH (5 knots; 2.6 m/s)
Visibility: 4 miles ( 6 km)
Ceiling: 10000 feet AGL
Clouds: few clouds at 1500 feet AGL
scattered clouds at 3000 feet AGL
broken clouds at 10000 feet AGL
Weather: no significant weather observed at this time

METAR text: VNKT 161520Z 26005KT 220V300 7000 FEW015 26/21 Q1008 NOSIG
Conditions at: VNKT (KATHMANDU INTL A, NP) observed 1520 UTC 16 June 2019
Temperature: 26.0°C (79°F)
Dewpoint: 21.0°C (70°F) [RH = 74%]
Pressure (altimeter): 29.76 inches Hg (1008.0 mb)
Winds: from the W (260 degrees) at 6 MPH (5 knots; 2.6 m/s)
Visibility: 4 miles ( 7 km)
Ceiling: at least 12,000 feet AGL
Clouds: few clouds at 1500 feet AGL
Weather: no significant weather observed at this time

METAR text: VNKT 161450Z 25004KT 220V310 7000 FEW015 26/21 Q1008 NOSIG
Conditions at: VNKT (KATHMANDU INTL A, NP) observed 1450 UTC 16 June 2019
Temperature: 26.0°C (79°F)
Dewpoint: 21.0°C (70°F) [RH = 74%]
Pressure (altimeter): 29.76 inches Hg (1008.0 mb)
Winds: from the WSW (250 degrees) at 5 MPH (4 knots; 2.1 m/s)
Visibility: 4 miles ( 7 km)
Ceiling: at least 12,000 feet AGL
Clouds: few clouds at 1500 feet AGL
Weather: no significant weather observed at this time

METAR text: VNKT 161420Z 22006KT 7000 FEW015 SCT030 BKN100 26/21 Q1008 NOSIG
Conditions at: VNKT (KATHMANDU INTL A, NP) observed 1420 UTC 16 June 2019
Temperature: 26.0°C (79°F)
Dewpoint: 21.0°C (70°F) [RH = 74%]
Pressure (altimeter): 29.76 inches Hg (1008.0 mb)
Winds: from the SW (220 degrees) at 7 MPH (6 knots; 3.1 m/s)
Visibility: 4 miles ( 7 km)
Ceiling: 10000 feet AGL
Clouds: few clouds at 1500 feet AGL
scattered clouds at 3000 feet AGL
broken clouds at 10000 feet AGL
Weather: no significant weather observed at this time

METAR text: VNKT 161350Z 23004KT 200V260 7000 FEW015 SCT030 BKN100 27/21 Q1007 NOSIG
Conditions at: VNKT (KATHMANDU INTL A, NP) observed 1350 UTC 16 June 2019
Temperature: 27.0°C (81°F)
Dewpoint: 21.0°C (70°F) [RH = 70%]
Pressure (altimeter): 29.73 inches Hg (1007.0 mb)
Winds: from the SW (230 degrees) at 5 MPH (4 knots; 2.1 m/s)
Visibility: 4 miles ( 7 km)
Ceiling: 10000 feet AGL
Clouds: few clouds at 1500 feet AGL
scattered clouds at 3000 feet AGL
broken clouds at 10000 feet AGL
Weather: no significant weather observed at this time

METAR text: VNKT 161320Z 28006KT 240V320 7000 FEW015 SCT030 BKN250 27/20 Q1007 NOSIG
Conditions at: VNKT (KATHMANDU INTL A, NP) observed 1320 UTC 16 June 2019
Temperature: 27.0°C (81°F)
Dewpoint: 20.0°C (68°F) [RH = 66%]
Pressure (altimeter): 29.73 inches Hg (1007.0 mb)
Winds: from the W (280 degrees) at 7 MPH (6 knots; 3.1 m/s)
Visibility: 4 miles ( 7 km)
Ceiling: 25000 feet AGL
Clouds: few clouds at 1500 feet AGL
scattered clouds at 3000 feet AGL
broken clouds at 25000 feet AGL
Weather: no significant weather observed at this time

METAR text: VNKT 161250Z 25007KT 210V330 6000 FEW015 SCT030 BKN100 28/21 Q1006 NOSIG
Conditions at: VNKT (KATHMANDU INTL A, NP) observed 1250 UTC 16 June 2019
Temperature: 28.0°C (82°F)
Dewpoint: 21.0°C (70°F) [RH = 66%]
Pressure (altimeter): 29.70 inches Hg (1006.0 mb)
Winds: from the WSW (250 degrees) at 8 MPH (7 knots; 3.6 m/s)
Visibility: 4 miles ( 6 km)
Ceiling: 10000 feet AGL
Clouds: few clouds at 1500 feet AGL
scattered clouds at 3000 feet AGL
broken clouds at 10000 feet AGL
Weather: no significant weather observed at this time

METAR text: VNKT 161220Z 23007KT 6000 FEW020 SCT030 BKN100 28/21 Q1006 NOSIG
Conditions at: VNKT (KATHMANDU INTL A, NP) observed 1220 UTC 16 June 2019
Temperature: 28.0°C (82°F)
Dewpoint: 21.0°C (70°F) [RH = 66%]
Pressure (altimeter): 29.70 inches Hg (1006.0 mb)
Winds: from the SW (230 degrees) at 8 MPH (7 knots; 3.6 m/s)
Visibility: 4 miles ( 6 km)
Ceiling: 10000 feet AGL
Clouds: few clouds at 2000 feet AGL
scattered clouds at 3000 feet AGL
broken clouds at 10000 feet AGL
Weather: no significant weather observed at this time

METAR text: VNKT 161150Z 29008KT 220V330 6000 FEW020 FEW025TCU SCT030 BKN100 29/19 Q1005 NOSIG
Conditions at: VNKT (KATHMANDU INTL A, NP) observed 1150 UTC 16 June 2019
Temperature: 29.0°C (84°F)
Dewpoint: 19.0°C (66°F) [RH = 55%]
Pressure (altimeter): 29.68 inches Hg (1005.0 mb)
Winds: from the WNW (290 degrees) at 9 MPH (8 knots; 4.1 m/s)
Visibility: 4 miles ( 6 km)
Ceiling: 10000 feet AGL
Clouds: few clouds at 2000 feet AGL
few clouds at 2500 feet AGL
scattered clouds at 3000 feet AGL
broken clouds at 10000 feet AGL
Weather: no significant weather observed at this time

METAR text: VNKT 161120Z 29008KT 250V330 7000 FEW020 FEW025TCU SCT030 30/19 Q1005 NOSIG
Conditions at: VNKT (KATHMANDU INTL A, NP) observed 1120 UTC 16 June 2019
Temperature: 30.0°C (86°F)
Dewpoint: 19.0°C (66°F) [RH = 52%]
Pressure (altimeter): 29.68 inches Hg (1005.0 mb)
Winds: from the WNW (290 degrees) at 9 MPH (8 knots; 4.1 m/s)
Visibility: 4 miles ( 7 km)
Ceiling: at least 12,000 feet AGL
Clouds: few clouds at 2000 feet AGL
few clouds at 2500 feet AGL
scattered clouds at 3000 feet AGL
Weather: no significant weather observed at this time

METAR text: VNKT 161050Z 27008KT 220V320 7000 FEW020 FEW025CB SCT030 30/19 Q1005 NOSIG CB TO NE
Conditions at: VNKT (KATHMANDU INTL A, NP) observed 1050 UTC 16 June 2019
Temperature: 30.0°C (86°F)
Dewpoint: 19.0°C (66°F) [RH = 52%]
Pressure (altimeter): 29.68 inches Hg (1005.0 mb)
Winds: from the W (270 degrees) at 9 MPH (8 knots; 4.1 m/s)
Visibility: 4 miles ( 7 km)
Ceiling: at least 12,000 feet AGL
Clouds: few clouds at 2000 feet AGL
few clouds at 2500 feet AGL
scattered clouds at 3000 feet AGL
Weather: no significant weather observed at this time

METAR text: VNKT 161020Z 28007KT 240V310 8000 FEW020 FEW025CB SCT030 30/19 Q1005 NOSIG CB TO N AND NE
Conditions at: VNKT (KATHMANDU INTL A, NP) observed 1020 UTC 16 June 2019
Temperature: 30.0°C (86°F)
Dewpoint: 19.0°C (66°F) [RH = 52%]
Pressure (altimeter): 29.68 inches Hg (1005.0 mb)
Winds: from the W (280 degrees) at 8 MPH (7 knots; 3.6 m/s)
Visibility: 5 miles ( 8 km)
Ceiling: at least 12,000 feet AGL
Clouds: few clouds at 2000 feet AGL
few clouds at 2500 feet AGL
scattered clouds at 3000 feet AGL
Weather: no significant weather observed at this time

METAR text: VNKT 160950Z 29007KT 240V340 8000 FEW020 FEW025TCU SCT030 31/19 Q1005 NOSIG
Conditions at: VNKT (KATHMANDU INTL A, NP) observed 0950 UTC 16 June 2019
Temperature: 31.0°C (88°F)
Dewpoint: 19.0°C (66°F) [RH = 49%]
Pressure (altimeter): 29.68 inches Hg (1005.0 mb)
Winds: from the WNW (290 degrees) at 8 MPH (7 knots; 3.6 m/s)
Visibility: 5 miles ( 8 km)
Ceiling: at least 12,000 feet AGL
Clouds: few clouds at 2000 feet AGL
few clouds at 2500 feet AGL
scattered clouds at 3000 feet AGL
Weather: no significant weather observed at this time

METAR text: VNKT 160920Z 28006KT 8000 FEW025 SCT030 31/19 Q1006 NOSIG
Conditions at: VNKT (KATHMANDU INTL A, NP) observed 0920 UTC 16 June 2019
Temperature: 31.0°C (88°F)
Dewpoint: 19.0°C (66°F) [RH = 49%]
Pressure (altimeter): 29.70 inches Hg (1006.0 mb)
Winds: from the W (280 degrees) at 7 MPH (6 knots; 3.1 m/s)
Visibility: 5 miles ( 8 km)
Ceiling: at least 12,000 feet AGL
Clouds: few clouds at 2500 feet AGL
scattered clouds at 3000 feet AGL
Weather: no significant weather observed at this time

METAR text: VNKT 160850Z 28009KT 250V310 8000 FEW025 31/19 Q1006 NOSIG
Conditions at: VNKT (KATHMANDU INTL A, NP) observed 0850 UTC 16 June 2019
Temperature: 31.0°C (88°F)
Dewpoint: 19.0°C (66°F) [RH = 49%]
Pressure (altimeter): 29.70 inches Hg (1006.0 mb)
Winds: from the W (280 degrees) at 10 MPH (9 knots; 4.6 m/s)
Visibility: 5 miles ( 8 km)
Ceiling: at least 12,000 feet AGL
Clouds: few clouds at 2500 feet AGL
Weather: no significant weather observed at this time

METAR text: VNKT 160820Z 29011KT 250V320 8000 FEW025 31/18 Q1006 NOSIG
Conditions at: VNKT (KATHMANDU INTL A, NP) observed 0820 UTC 16 June 2019
Temperature: 31.0°C (88°F)
Dewpoint: 18.0°C (64°F) [RH = 46%]
Pressure (altimeter): 29.70 inches Hg (1006.0 mb)
Winds: from the WNW (290 degrees) at 13 MPH (11 knots; 5.7 m/s)
Visibility: 5 miles ( 8 km)
Ceiling: at least 12,000 feet AGL
Clouds: few clouds at 2500 feet AGL
Weather: no significant weather observed at this time

METAR text: VNKT 160750Z 30007KT 8000 FEW025 31/17 Q1006 NOSIG
Conditions at: VNKT (KATHMANDU INTL A, NP) observed 0750 UTC 16 June 2019
Temperature: 31.0°C (88°F)
Dewpoint: 17.0°C (63°F) [RH = 43%]
Pressure (altimeter): 29.70 inches Hg (1006.0 mb)
Winds: from the WNW (300 degrees) at 8 MPH (7 knots; 3.6 m/s)
Visibility: 5 miles ( 8 km)
Ceiling: at least 12,000 feet AGL
Clouds: few clouds at 2500 feet AGL
Weather: no significant weather observed at this time

METAR text: VNKT 160720Z 29007KT 220V360 8000 FEW020 31/17 Q1006 NOSIG
Conditions at: VNKT (KATHMANDU INTL A, NP) observed 0720 UTC 16 June 2019
Temperature: 31.0°C (88°F)
Dewpoint: 17.0°C (63°F) [RH = 43%]
Pressure (altimeter): 29.70 inches Hg (1006.0 mb)
Winds: from the WNW (290 degrees) at 8 MPH (7 knots; 3.6 m/s)
Visibility: 5 miles ( 8 km)
Ceiling: at least 12,000 feet AGL
Clouds: few clouds at 2000 feet AGL
Weather: no significant weather observed at this time

METAR text: VNKT 160650Z 32009KT 8000 FEW020 31/15 Q1006 NOSIG
Conditions at: VNKT (KATHMANDU INTL A, NP) observed 0650 UTC 16 June 2019
Temperature: 31.0°C (88°F)
Dewpoint: 15.0°C (59°F) [RH = 38%]
Pressure (altimeter): 29.70 inches Hg (1006.0 mb)
Winds: from the NW (320 degrees) at 10 MPH (9 knots; 4.6 m/s)
Visibility: 5 miles ( 8 km)
Ceiling: at least 12,000 feet AGL
Clouds: few clouds at 2000 feet AGL
Weather: no significant weather observed at this time

METAR text: VNKT 160620Z 30006KT 8000 FEW020 31/13 Q1006 NOSIG
Conditions at: VNKT (KATHMANDU INTL A, NP) observed 0620 UTC 16 June 2019
Temperature: 31.0°C (88°F)
Dewpoint: 13.0°C (55°F) [RH = 33%]
Pressure (altimeter): 29.70 inches Hg (1006.0 mb)
Winds: from the WNW (300 degrees) at 7 MPH (6 knots; 3.1 m/s)
Visibility: 5 miles ( 8 km)
Ceiling: at least 12,000 feet AGL
Clouds: few clouds at 2000 feet AGL
Weather: no significant weather observed at this time

METAR text: VNKT 160550Z 28006KT 7000 FEW020 31/17 Q1006 NOSIG
Conditions at: VNKT (KATHMANDU INTL A, NP) observed 0550 UTC 16 June 2019
Temperature: 31.0°C (88°F)
Dewpoint: 17.0°C (63°F) [RH = 43%]
Pressure (altimeter): 29.70 inches Hg (1006.0 mb)
Winds: from the W (280 degrees) at 7 MPH (6 knots; 3.1 m/s)
Visibility: 4 miles ( 7 km)
Ceiling: at least 12,000 feet AGL
Clouds: few clouds at 2000 feet AGL
Weather: no significant weather observed at this time

METAR text: VNKT 160520Z 34005KT 7000 FEW020 30/18 Q1007 NOSIG
Conditions at: VNKT (KATHMANDU INTL A, NP) observed 0520 UTC 16 June 2019
Temperature: 30.0°C (86°F)
Dewpoint: 18.0°C (64°F) [RH = 49%]
Pressure (altimeter): 29.73 inches Hg (1007.0 mb)
Winds: from the NNW (340 degrees) at 6 MPH (5 knots; 2.6 m/s)
Visibility: 4 miles ( 7 km)
Ceiling: at least 12,000 feet AGL
Clouds: few clouds at 2000 feet AGL
Weather: no significant weather observed at this time

METAR text: VNKT 160450Z 24004KT 6000 FEW020 29/17 Q1007 NOSIG
Conditions at: VNKT (KATHMANDU INTL A, NP) observed 0450 UTC 16 June 2019
Temperature: 29.0°C (84°F)
Dewpoint: 17.0°C (63°F) [RH = 48%]
Pressure (altimeter): 29.73 inches Hg (1007.0 mb)
Winds: from the WSW (240 degrees) at 5 MPH (4 knots; 2.1 m/s)
Visibility: 4 miles ( 6 km)
Ceiling: at least 12,000 feet AGL
Clouds: few clouds at 2000 feet AGL
Weather: no significant weather observed at this time

METAR text: VNKT 160420Z 36003KT 6000 FEW020 28/18 Q1007 NOSIG
Conditions at: VNKT (KATHMANDU INTL A, NP) observed 0420 UTC 16 June 2019
Temperature: 28.0°C (82°F)
Dewpoint: 18.0°C (64°F) [RH = 55%]
Pressure (altimeter): 29.73 inches Hg (1007.0 mb)
Winds: from the N (360 degrees) at 3 MPH (3 knots; 1.5 m/s)
Visibility: 4 miles ( 6 km)
Ceiling: at least 12,000 feet AGL
Clouds: few clouds at 2000 feet AGL
Weather: no significant weather observed at this time

METAR text: VNKT 160350Z 23003KT 6000 FEW015 27/19 Q1008 NOSIG
Conditions at: VNKT (KATHMANDU INTL A, NP) observed 0350 UTC 16 June 2019
Temperature: 27.0°C (81°F)
Dewpoint: 19.0°C (66°F) [RH = 62%]
Pressure (altimeter): 29.76 inches Hg (1008.0 mb)
Winds: from the SW (230 degrees) at 3 MPH (3 knots; 1.5 m/s)
Visibility: 4 miles ( 6 km)
Ceiling: at least 12,000 feet AGL
Clouds: few clouds at 1500 feet AGL
Weather: no significant weather observed at this time

METAR text: VNKT 160320Z VRB02KT 6000 FEW020 27/20 Q1008 NOSIG
Conditions at: VNKT (KATHMANDU INTL A, NP) observed 0320 UTC 16 June 2019
Temperature: 27.0°C (81°F)
Dewpoint: 20.0°C (68°F) [RH = 66%]
Pressure (altimeter): 29.76 inches Hg (1008.0 mb)
Winds: variable direction winds at 2 MPH (2 knots; 1.0 m/s)
Visibility: 4 miles ( 6 km)
Ceiling: at least 12,000 feet AGL
Clouds: few clouds at 2000 feet AGL
Weather: no significant weather observed at this time

METAR text: VNKT 160250Z VRB02KT 6000 FEW015 26/19 Q1008 NOSIG
Conditions at: VNKT (KATHMANDU INTL A, NP) observed 0250 UTC 16 June 2019
Temperature: 26.0°C (79°F)
Dewpoint: 19.0°C (66°F) [RH = 65%]
Pressure (altimeter): 29.76 inches Hg (1008.0 mb)
Winds: variable direction winds at 2 MPH (2 knots; 1.0 m/s)
Visibility: 4 miles ( 6 km)
Ceiling: at least 12,000 feet AGL
Clouds: few clouds at 1500 feet AGL
Weather: no significant weather observed at this time

METAR text: VNKT 160220Z VRB02KT 6000 FEW015 25/18 Q1008 NOSIG
Conditions at: VNKT (KATHMANDU INTL A, NP) observed 0220 UTC 16 June 2019
Temperature: 25.0°C (77°F)
Dewpoint: 18.0°C (64°F) [RH = 65%]
Pressure (altimeter): 29.76 inches Hg (1008.0 mb)
Winds: variable direction winds at 2 MPH (2 knots; 1.0 m/s)
Visibility: 4 miles ( 6 km)
Ceiling: at least 12,000 feet AGL
Clouds: few clouds at 1500 feet AGL
Weather: no significant weather observed at this time

METAR text: VNKT 160150Z 00000KT 6000 FEW015 25/18 Q1008 NOSIG
Conditions at: VNKT (KATHMANDU INTL A, NP) observed 0150 UTC 16 June 2019
Temperature: 25.0°C (77°F)
Dewpoint: 18.0°C (64°F) [RH = 65%]
Pressure (altimeter): 29.76 inches Hg (1008.0 mb)
Winds: calm
Visibility: 4 miles ( 6 km)
Ceiling: at least 12,000 feet AGL
Clouds: few clouds at 1500 feet AGL
Weather: no significant weather observed at this time

METAR text: VNKT 160120Z 00000KT 6000 FEW015 23/19 Q1008 NOSIG
Conditions at: VNKT (KATHMANDU INTL A, NP) observed 0120 UTC 16 June 2019
Temperature: 23.0°C (73°F)
Dewpoint: 19.0°C (66°F) [RH = 78%]
Pressure (altimeter): 29.76 inches Hg (1008.0 mb)
Winds: calm
Visibility: 4 miles ( 6 km)
Ceiling: at least 12,000 feet AGL
Clouds: few clouds at 1500 feet AGL
Weather: no significant weather observed at this time

METAR text: VNKT 160050Z VRB02KT 6000 FEW020 22/18 Q1008 NOSIG
Conditions at: VNKT (KATHMANDU INTL A, NP) observed 0050 UTC 16 June 2019
Temperature: 22.0°C (72°F)
Dewpoint: 18.0°C (64°F) [RH = 78%]
Pressure (altimeter): 29.76 inches Hg (1008.0 mb)
Winds: variable direction winds at 2 MPH (2 knots; 1.0 m/s)
Visibility: 4 miles ( 6 km)
Ceiling: at least 12,000 feet AGL
Clouds: few clouds at 2000 feet AGL
Weather: no significant weather observed at this time

METAR text: VNKT 160020Z 12003KT 6000 FEW020 21/19 Q1008 NOSIG
Conditions at: VNKT (KATHMANDU INTL A, NP) observed 0020 UTC 16 June 2019
Temperature: 21.0°C (70°F)
Dewpoint: 19.0°C (66°F) [RH = 88%]
Pressure (altimeter): 29.76 inches Hg (1008.0 mb)
Winds: from the ESE (120 degrees) at 3 MPH (3 knots; 1.5 m/s)
Visibility: 4 miles ( 6 km)
Ceiling: at least 12,000 feet AGL
Clouds: few clouds at 2000 feet AGL
Weather: no significant weather observed at this time

METAR text: VNKT 152320Z 00000KT 6000 FEW020 20/19 Q1007 NOSIG
Conditions at: VNKT (KATHMANDU INTL A, NP) observed 2320 UTC 15 June 2019
Temperature: 20.0°C (68°F)
Dewpoint: 19.0°C (66°F) [RH = 94%]
Pressure (altimeter): 29.73 inches Hg (1007.0 mb)
Winds: calm
Visibility: 4 miles ( 6 km)
Ceiling: at least 12,000 feet AGL
Clouds: few clouds at 2000 feet AGL
Weather: no significant weather observed at this time

Forecast for: VNKT (KATHMANDU INTL A, NP)
Text: TAF VNKT 170500Z 1706/1806 04004KT 7000 FEW020
Forecast period: 0600 to 0700 UTC 17 June 2019
Forecast type: FROM: standard forecast or significant change
Winds: from the NE (40 degrees) at 5 MPH (4 knots; 2.1 m/s)
Visibility: 4 miles (7 km)
Ceiling: at least 12,000 feet AGL
Clouds: few clouds at 2000 feet AGL
Weather: no significant weather forecast for this period
Text: BECMG 1707/1709 25010KT 9000 FEW20 SCT030
Forecast period: 0700 to 1400 UTC 17 June 2019
Forecast type: BECOMING: Conditions expected to become as follows by 0900 UTC 17 June 2019
Winds: from the WSW (250 degrees) at 12 MPH (10 knots; 5.1 m/s)
Visibility: 6 miles (9 km)
Ceiling: at least 12,000 feet AGL
Clouds: scattered clouds at 3000 feet AGL
Weather: no significant weather forecast for this period
Text: PROB40 1709/1714 VRB15KT 4000 -TSRA FEW025CB BKN100
Forecast period: 0900 to 1400 UTC 17 June 2019
Forecast type: PROBABLE: 40 percent likelihood of the following during this time
Winds: variable direction winds at 17 MPH (15 knots; 7.7 m/s)
Visibility: 2.49 miles (4.01 km)
Ceiling: 10000 feet AGL
Clouds: few clouds at 2500 feet AGL
broken clouds at 10000 feet AGL
Weather: -TSRA  (light rain associated with thunderstorm(s))
Text: BECMG 1714/1715 24004KT 6000 FEW015 SCT025
Forecast period: 1400 UTC 17 June 2019 to 0000 UTC 18 June 2019
Forecast type: BECOMING: Conditions expected to become as follows by 1500 UTC 17 June 2019
Winds: from the WSW (240 degrees) at 5 MPH (4 knots; 2.1 m/s)
Visibility: 4 miles (6 km)
Ceiling: at least 12,000 feet AGL
Clouds: few clouds at 1500 feet AGL
scattered clouds at 2500 feet AGL
Weather: no significant weather forecast for this period
Text: BECMG 1800/1802 00000KT 4000 BR FEW010 SCT025 BKN100
Forecast period: 0000 to 0400 UTC 18 June 2019
Forecast type: BECOMING: Conditions expected to become as follows by 0200 UTC 18 June 2019
Winds: calm
Visibility: 2.49 miles (4.01 km)
Ceiling: 10000 feet AGL
Clouds: few clouds at 1000 feet AGL
scattered clouds at 2500 feet AGL
broken clouds at 10000 feet AGL
Weather: BR  (mist)
Text: BECMG 1804/1805 15004KT 6000 FEW015 SCT100
Forecast period: 0400 to 0600 UTC 18 June 2019
Forecast type: BECOMING: Conditions expected to become as follows by 0500 UTC 18 June 2019
Winds: from the SSE (150 degrees) at 5 MPH (4 knots; 2.1 m/s)
Visibility: 4 miles (6 km)
Ceiling: at least 12,000 feet AGL
Clouds: few clouds at 1500 feet AGL
scattered clouds at 10000 feet AGL
Weather: BR  (mist)